Time;durP1;ratioP1;P1;durP2;ratioP2;P2;SDS_P1;SDS_P2;PMS_P1;PMS_P2;Temp;Humidity;BMP_temperature;BMP_pressure;BME280_temperature;BME280_humidity;BME280_pressure;Samples;Min_cycle;Max_cycle;Signal;HPM_P1;HPM_P2
2023/09/28 00:00:35;;;;;;;8.63;6.45;;;19.10;73.10;;;;;;5006692;28;20078;-73
2023/09/28 00:02:46;;;;;;;9.57;6.90;;;19.10;73.10;;;;;;4989710;28;20049;-73
2023/09/28 00:05:14;;;;;;;11.40;7.22;;;19.20;73.10;;;;;;5006225;28;20069;-73
2023/09/28 00:07:40;;;;;;;10.75;6.65;;;19.20;73.10;;;;;;4989963;28;20692;-73
2023/09/28 00:10:10;;;;;;;10.20;6.90;;;19.10;73.20;;;;;;5006417;28;20053;-73
2023/09/28 00:12:38;;;;;;;10.20;7.20;;;19.10;73.20;;;;;;5007982;28;20536;-73
2023/09/28 00:15:08;;;;;;;9.53;6.77;;;19.10;73.20;;;;;;5011275;28;20050;-73
2023/09/28 00:17:34;;;;;;;9.60;6.93;;;19.10;73.10;;;;;;5011170;28;20046;-73
2023/09/28 00:20:01;;;;;;;9.90;7.40;;;19.10;73.20;;;;;;4993550;28;20050;-73
2023/09/28 00:22:27;;;;;;;11.82;7.47;;;19.10;73.20;;;;;;5016298;28;20244;-73
2023/09/28 00:24:54;;;;;;;11.73;7.50;;;19.10;73.20;;;;;;5011639;28;20054;-73
2023/09/28 00:27:19;;;;;;;11.30;7.30;;;19.10;73.20;;;;;;4993005;28;20541;-73
2023/09/28 00:29:47;;;;;;;10.68;7.03;;;19.10;73.20;;;;;;5015076;28;20055;-73
2023/09/28 00:32:14;;;;;;;10.55;7.45;;;19.10;73.20;;;;;;4993159;28;20065;-73
2023/09/28 00:34:42;;;;;;;10.60;7.47;;;19.10;73.10;;;;;;5009097;28;20050;-73
2023/09/28 00:37:08;;;;;;;9.57;6.60;;;19.10;73.20;;;;;;5015893;28;20479;-73
2023/09/28 00:39:36;;;;;;;10.30;6.57;;;19.10;73.00;;;;;;4977803;28;20341;-73
2023/09/28 00:42:05;;;;;;;11.13;7.35;;;19.10;73.20;;;;;;4957753;28;20600;-73
2023/09/28 00:44:32;;;;;;;10.38;7.47;;;19.10;73.10;;;;;;4973583;28;20063;-73
2023/09/28 00:46:58;;;;;;;10.90;6.85;;;19.00;73.20;;;;;;4974065;28;20648;-73
2023/09/28 00:49:26;;;;;;;11.40;6.67;;;19.00;73.20;;;;;;4957381;28;20732;-73
2023/09/28 00:51:52;;;;;;;9.23;6.88;;;19.10;73.20;;;;;;4957443;28;20054;-73
2023/09/28 00:54:23;;;;;;;9.75;6.88;;;19.00;73.10;;;;;;4973263;28;20063;-73
2023/09/28 00:56:50;;;;;;;8.27;6.25;;;19.00;73.10;;;;;;5000161;28;20707;-73
2023/09/28 00:59:18;;;;;;;9.10;6.30;;;19.00;72.80;;;;;;4992640;28;20059;-73
2023/09/28 01:01:47;;;;;;;10.95;6.80;;;19.00;72.80;;;;;;4977098;28;20934;-73
2023/09/28 01:04:14;;;;;;;9.55;6.07;;;19.00;72.60;;;;;;4992611;28;20050;-73
2023/09/28 01:06:41;;;;;;;9.05;6.78;;;19.00;72.50;;;;;;4977055;28;20050;-73
2023/09/28 01:09:09;;;;;;;8.50;5.95;;;19.00;72.40;;;;;;5009257;28;20506;-73
2023/09/28 01:11:36;;;;;;;9.47;6.57;;;19.00;72.30;;;;;;4992498;28;20082;-73
2023/09/28 01:14:04;;;;;;;7.93;5.88;;;19.00;72.20;;;;;;4992751;28;20388;-73
2023/09/28 01:16:30;;;;;;;10.10;6.22;;;19.10;72.10;;;;;;4992863;28;20683;-73
2023/09/28 01:18:57;;;;;;;8.07;5.82;;;19.10;72.00;;;;;;4992657;28;20059;-73
2023/09/28 01:21:24;;;;;;;8.97;6.20;;;19.10;71.90;;;;;;4976431;28;20660;-73
2023/09/28 01:23:52;;;;;;;9.68;6.20;;;19.10;71.80;;;;;;5010397;28;20779;-73
2023/09/28 01:26:18;;;;;;;9.82;6.03;;;19.10;71.60;;;;;;4992478;28;20057;-73
2023/09/28 01:28:45;;;;;;;11.75;6.65;;;19.10;71.40;;;;;;4992373;28;20053;-74
2023/09/28 01:31:11;;;;;;;9.45;7.00;;;19.10;71.40;;;;;;4992696;28;20390;-73
2023/09/28 01:33:38;;;;;;;9.03;6.40;;;19.10;71.40;;;;;;5010131;28;20140;-73
2023/09/28 01:36:07;;;;;;;8.10;5.97;;;19.20;71.30;;;;;;4992419;28;20060;-73
2023/09/28 01:38:38;;;;;;;8.40;5.85;;;19.20;71.20;;;;;;5010016;28;20580;-73
2023/09/28 01:41:07;;;;;;;9.52;6.20;;;19.20;71.30;;;;;;5010293;28;20484;-73
2023/09/28 01:43:33;;;;;;;10.30;6.20;;;19.20;71.20;;;;;;5008610;28;20046;-73
2023/09/28 01:46:00;;;;;;;9.23;6.30;;;19.20;71.10;;;;;;4992042;28;20137;-73
2023/09/28 01:48:25;;;;;;;9.20;6.30;;;19.20;71.10;;;;;;4992178;28;20058;-73
2023/09/28 01:50:52;;;;;;;8.73;6.30;;;19.10;71.00;;;;;;4992395;28;20497;-73
2023/09/28 01:53:18;;;;;;;7.57;5.75;;;19.20;71.00;;;;;;4992337;28;20517;-73
2023/09/28 01:55:46;;;;;;;8.93;5.80;;;19.10;71.00;;;;;;4992557;28;20097;-73
2023/09/28 01:58:13;;;;;;;9.45;5.60;;;19.10;71.00;;;;;;4992204;28;20137;-73
2023/09/28 02:00:44;;;;;;;7.50;5.45;;;19.10;71.10;;;;;;5008579;28;20058;-73
2023/09/28 02:03:10;;;;;;;8.45;6.15;;;19.10;71.10;;;;;;4992098;28;20712;-73
2023/09/28 02:05:37;;;;;;;8.40;5.45;;;19.10;71.20;;;;;;5009249;28;20489;-73
2023/09/28 02:08:06;;;;;;;8.98;5.80;;;19.10;71.20;;;;;;4992047;28;20062;-73
2023/09/28 02:10:32;;;;;;;9.30;5.70;;;19.00;71.20;;;;;;4991738;28;20066;-73
2023/09/28 02:12:59;;;;;;;8.50;5.97;;;19.00;71.20;;;;;;4992638;28;20042;-73
2023/09/28 02:15:27;;;;;;;9.23;5.38;;;19.00;71.40;;;;;;4990843;28;20085;-73
2023/09/28 02:17:53;;;;;;;8.10;5.40;;;18.90;71.50;;;;;;5009092;28;20057;-73
2023/09/28 02:20:22;;;;;;;7.88;5.13;;;18.90;71.50;;;;;;4999845;28;20641;-73
2023/09/28 02:22:50;;;;;;;8.48;5.35;;;18.90;71.50;;;;;;4991748;28;20050;-73
2023/09/28 02:25:19;;;;;;;7.65;5.10;;;18.90;71.60;;;;;;5009231;28;20093;-73
2023/09/28 02:27:46;;;;;;;7.45;5.35;;;18.90;71.70;;;;;;4991798;28;20053;-73
2023/09/28 02:30:15;;;;;;;7.80;4.97;;;18.80;71.80;;;;;;4990900;28;20042;-73
2023/09/28 02:32:44;;;;;;;8.52;5.10;;;18.80;71.80;;;;;;4991274;28;20146;-73
2023/09/28 02:35:13;;;;;;;6.53;5.00;;;18.70;72.00;;;;;;4990611;28;20055;-73
2023/09/28 02:37:41;;;;;;;7.47;5.20;;;18.70;72.00;;;;;;4989880;28;20104;-73
2023/09/28 02:40:09;;;;;;;7.43;5.18;;;18.70;72.10;;;;;;4989847;28;20078;-73
2023/09/28 02:42:36;;;;;;;6.80;4.93;;;18.70;72.20;;;;;;4986660;28;20541;-73
2023/09/28 02:45:09;;;;;;;8.48;5.03;;;18.70;72.30;;;;;;4986903;28;20604;-73
2023/09/28 02:47:35;;;;;;;8.15;5.32;;;18.60;72.30;;;;;;4954521;28;20106;-73
2023/09/28 02:50:06;;;;;;;7.53;5.15;;;18.60;72.40;;;;;;4970529;28;20079;-73
2023/09/28 02:52:32;;;;;;;6.63;4.60;;;18.60;72.50;;;;;;4989279;28;20058;-73
2023/09/28 02:55:02;;;;;;;7.90;5.07;;;18.50;72.50;;;;;;4971339;28;20262;-73
2023/09/28 02:57:28;;;;;;;7.93;5.00;;;18.50;72.60;;;;;;4987908;28;20129;-73
2023/09/28 02:59:55;;;;;;;8.02;5.35;;;18.50;72.70;;;;;;4971576;28;20051;-73
2023/09/28 03:02:21;;;;;;;9.35;5.60;;;18.50;72.70;;;;;;4971802;28;20143;-73
2023/09/28 03:04:48;;;;;;;7.33;5.03;;;18.40;72.90;;;;;;4989215;28;20058;-73
2023/09/28 03:07:16;;;;;;;9.98;5.70;;;18.40;73.00;;;;;;4989162;28;20267;-73
2023/09/28 03:09:42;;;;;;;9.50;5.97;;;18.40;73.00;;;;;;4989330;28;20055;-73
2023/09/28 03:12:10;;;;;;;9.80;6.40;;;18.30;73.20;;;;;;4971859;28;20062;-73
2023/09/28 03:14:37;;;;;;;9.45;5.70;;;18.30;73.30;;;;;;4988903;28;20133;-73
2023/09/28 03:17:04;;;;;;;8.70;6.17;;;18.30;73.40;;;;;;4986564;28;20053;-73
2023/09/28 03:19:31;;;;;;;11.65;6.13;;;18.20;73.60;;;;;;4974435;28;20050;-72
2023/09/28 03:21:58;;;;;;;9.27;5.60;;;18.20;73.70;;;;;;5007215;28;20050;-73
2023/09/28 03:24:26;;;;;;;8.65;5.65;;;18.20;73.70;;;;;;5015093;28;20050;-73
2023/09/28 03:26:52;;;;;;;10.10;6.30;;;18.20;73.90;;;;;;5010817;28;20125;-73
2023/09/28 03:29:18;;;;;;;7.90;5.67;;;18.10;74.00;;;;;;4994194;28;20588;-73
2023/09/28 03:31:45;;;;;;;10.32;6.20;;;18.10;74.10;;;;;;4974497;28;20060;-73
2023/09/28 03:34:12;;;;;;;7.22;5.60;;;18.10;74.30;;;;;;4984344;28;20061;-73
2023/09/28 03:36:39;;;;;;;11.15;6.00;;;18.10;74.50;;;;;;4990827;28;20484;-73
2023/09/28 03:39:06;;;;;;;9.23;5.80;;;18.00;74.70;;;;;;5007259;28;20173;-73
2023/09/28 03:41:34;;;;;;;9.98;5.93;;;18.00;74.80;;;;;;5003037;28;20066;-72
2023/09/28 03:44:01;;;;;;;10.57;6.47;;;18.00;75.00;;;;;;4990653;28;20428;-73
2023/09/28 03:46:28;;;;;;;9.65;5.85;;;18.00;75.00;;;;;;4974180;28;20057;-73
2023/09/28 03:48:55;;;;;;;8.90;6.00;;;18.00;75.10;;;;;;5007520;28;20055;-73
2023/09/28 03:51:22;;;;;;;8.73;5.77;;;18.00;75.40;;;;;;4990565;28;20046;-73
2023/09/28 03:53:48;;;;;;;9.85;5.65;;;18.00;75.40;;;;;;4990610;28;20539;-73
2023/09/28 03:56:15;;;;;;;9.13;5.90;;;18.00;75.50;;;;;;4966750;28;20077;-73
2023/09/28 03:58:45;;;;;;;12.48;6.28;;;18.00;75.50;;;;;;5008227;28;20508;-73
2023/09/28 04:01:12;;;;;;;9.63;6.15;;;17.90;75.80;;;;;;5006762;28;20048;-73
2023/09/28 04:03:38;;;;;;;9.40;6.27;;;17.90;75.90;;;;;;4990714;28;20046;-73
2023/09/28 04:06:05;;;;;;;8.95;5.90;;;17.90;75.80;;;;;;5007903;28;20057;-73
2023/09/28 04:08:32;;;;;;;9.00;5.97;;;17.90;75.80;;;;;;5008021;28;20565;-73
2023/09/28 04:10:59;;;;;;;8.30;5.90;;;17.90;75.90;;;;;;5008100;28;20121;-72
2023/09/28 04:13:26;;;;;;;9.57;5.85;;;17.80;75.90;;;;;;4990793;28;20713;-73
2023/09/28 04:15:55;;;;;;;8.90;6.20;;;17.80;76.00;;;;;;5007910;28;20058;-73
2023/09/28 04:18:22;;;;;;;8.77;6.13;;;17.80;76.20;;;;;;4990315;28;20121;-73
2023/09/28 04:20:49;;;;;;;10.05;5.82;;;17.80;76.30;;;;;;5007910;28;20089;-73
2023/09/28 04:23:16;;;;;;;10.45;6.03;;;17.80;76.30;;;;;;5007908;28;20718;-73
2023/09/28 04:25:43;;;;;;;9.70;5.78;;;17.80;76.20;;;;;;5024759;28;20141;-73
2023/09/28 04:28:12;;;;;;;10.10;6.17;;;17.80;76.60;;;;;;4997131;28;20138;-73
2023/09/28 04:30:39;;;;;;;9.05;5.78;;;17.80;76.70;;;;;;4993385;28;20493;-73
2023/09/28 04:33:07;;;;;;;10.20;5.93;;;17.80;76.80;;;;;;4990013;28;20138;-73
2023/09/28 04:35:35;;;;;;;9.07;5.68;;;17.70;76.70;;;;;;5006073;28;20054;-73
2023/09/28 04:38:03;;;;;;;9.07;5.97;;;17.70;77.00;;;;;;5006417;28;20082;-73
2023/09/28 04:40:30;;;;;;;9.33;6.10;;;17.60;77.20;;;;;;4973661;28;20501;-73
2023/09/28 04:42:57;;;;;;;9.00;6.10;;;17.60;77.00;;;;;;5007960;28;20493;-73
2023/09/28 04:45:24;;;;;;;10.02;6.07;;;17.60;77.20;;;;;;4989701;28;20054;-73
2023/09/28 04:47:51;;;;;;;9.00;5.95;;;17.60;77.30;;;;;;5006130;28;20055;-73
2023/09/28 04:50:19;;;;;;;9.07;5.95;;;17.50;77.40;;;;;;5007345;28;20062;-73
2023/09/28 04:52:46;;;;;;;10.07;6.40;;;17.50;77.60;;;;;;5008028;28;20057;-73
2023/09/28 04:55:14;;;;;;;9.15;6.20;;;17.50;77.70;;;;;;5005815;28;20148;-73
2023/09/28 04:57:41;;;;;;;11.45;6.50;;;17.50;78.00;;;;;;5006436;28;20496;-73
2023/09/28 05:00:15;;;;;;;9.55;5.93;;;17.50;77.90;;;;;;5010285;28;20058;-73
2023/09/28 05:02:43;;;;;;;11.80;6.22;;;17.50;78.20;;;;;;5009568;28;20136;-73
2023/09/28 05:05:11;;;;;;;11.07;6.57;;;17.50;78.30;;;;;;5009303;28;20070;-73
2023/09/28 05:07:40;;;;;;;9.25;6.07;;;17.50;78.40;;;;;;5009953;28;20533;-72
2023/09/28 05:10:08;;;;;;;9.75;6.28;;;17.40;78.50;;;;;;5009595;28;20046;-73
2023/09/28 05:12:35;;;;;;;12.45;6.43;;;17.50;78.70;;;;;;4993214;28;20046;-73
2023/09/28 05:15:03;;;;;;;10.63;6.28;;;17.40;78.80;;;;;;5011011;28;20487;-73
2023/09/28 05:17:31;;;;;;;9.10;6.00;;;17.40;78.70;;;;;;5008771;28;20148;-73
2023/09/28 05:19:58;;;;;;;10.50;5.57;;;17.40;79.00;;;;;;5009309;28;20058;-73
2023/09/28 05:22:26;;;;;;;9.27;6.32;;;17.40;79.00;;;;;;5008796;28;20050;-73
2023/09/28 05:24:54;;;;;;;9.13;6.10;;;17.40;79.00;;;;;;5008868;28;20130;-73
2023/09/28 05:27:22;;;;;;;8.88;6.13;;;17.30;79.20;;;;;;5010166;28;20529;-73
2023/09/28 05:29:50;;;;;;;10.27;5.93;;;17.30;79.20;;;;;;4992549;28;20054;-72
2023/09/28 05:32:16;;;;;;;9.20;6.00;;;17.20;79.10;;;;;;4992996;28;20128;-73
2023/09/28 05:34:44;;;;;;;10.73;6.28;;;17.20;79.10;;;;;;5010314;28;20050;-72
2023/09/28 05:37:11;;;;;;;9.68;6.50;;;17.20;79.20;;;;;;4992116;28;20053;-73
2023/09/28 05:39:38;;;;;;;10.38;6.40;;;17.20;79.30;;;;;;4992412;28;20062;-72
2023/09/28 05:42:07;;;;;;;9.87;6.30;;;17.20;79.30;;;;;;4992484;28;20420;-73
2023/09/28 05:44:34;;;;;;;11.30;5.95;;;17.20;79.30;;;;;;5009392;28;20521;-73
2023/09/28 05:47:01;;;;;;;9.18;5.32;;;17.20;79.40;;;;;;5009992;28;20117;-73
2023/09/28 05:49:29;;;;;;;12.55;5.90;;;17.20;79.30;;;;;;5010117;28;20408;-73
2023/09/28 05:51:56;;;;;;;12.77;6.20;;;17.20;79.40;;;;;;5009607;28;20163;-73
2023/09/28 05:54:23;;;;;;;8.97;5.40;;;17.20;79.50;;;;;;4992020;28;20707;-73
2023/09/28 05:56:50;;;;;;;12.52;5.55;;;17.20;79.50;;;;;;5008601;28;20050;-73
2023/09/28 05:59:19;;;;;;;10.88;5.18;;;17.10;79.60;;;;;;4991999;28;20056;-73
2023/09/28 06:01:46;;;;;;;10.18;4.88;;;17.10;79.70;;;;;;4990270;28;20046;-72
2023/09/28 06:04:13;;;;;;;9.10;4.50;;;17.10;79.70;;;;;;4975961;28;20047;-73
2023/09/28 06:06:40;;;;;;;9.53;4.77;;;17.10;79.70;;;;;;4991559;28;20505;-73
2023/09/28 06:09:07;;;;;;;9.10;4.28;;;17.00;79.70;;;;;;5009381;28;20054;-73
2023/09/28 06:11:34;;;;;;;12.80;4.43;;;17.00;79.90;;;;;;5008754;28;20051;-72
2023/09/28 06:14:02;;;;;;;8.45;4.07;;;17.00;79.90;;;;;;5009668;28;20157;-73
2023/09/28 06:16:30;;;;;;;10.27;4.25;;;17.00;79.90;;;;;;5007851;28;20643;-73
2023/09/28 06:18:57;;;;;;;9.47;4.00;;;17.00;79.90;;;;;;5008523;28;20054;-73
2023/09/28 06:21:24;;;;;;;10.40;3.90;;;17.00;79.90;;;;;;5009482;28;20538;-73
2023/09/28 06:23:51;;;;;;;13.13;4.20;;;17.00;80.00;;;;;;4972526;28;20078;-73
2023/09/28 06:26:19;;;;;;;12.25;4.13;;;17.10;80.00;;;;;;4989652;28;20059;-73
2023/09/28 06:28:46;;;;;;;10.05;3.67;;;17.10;80.00;;;;;;4972686;28;20046;-72
2023/09/28 06:31:14;;;;;;;11.87;3.30;;;17.10;79.90;;;;;;4972349;28;20970;-72
2023/09/28 06:33:43;;;;;;;10.65;3.30;;;17.10;80.00;;;;;;4972312;28;20054;-73
2023/09/28 06:36:10;;;;;;;13.27;4.68;;;17.10;79.90;;;;;;4986745;28;20061;-73
2023/09/28 06:38:37;;;;;;;11.75;3.80;;;17.00;80.00;;;;;;4991090;28;20050;-73
2023/09/28 06:41:04;;;;;;;9.70;3.80;;;17.00;80.10;;;;;;4993391;28;20051;-73
2023/09/28 06:43:31;;;;;;;11.53;3.80;;;17.00;80.10;;;;;;4974286;28;20054;-73
2023/09/28 06:45:58;;;;;;;12.60;3.97;;;17.00;80.20;;;;;;4996611;28;20055;-73
2023/09/28 06:48:25;;;;;;;12.23;3.67;;;17.10;80.20;;;;;;4997464;28;20078;-72
2023/09/28 06:50:56;;;;;;;11.52;4.05;;;17.10;80.30;;;;;;5000202;28;20181;-73
2023/09/28 06:53:23;;;;;;;11.75;3.35;;;17.10;80.30;;;;;;4964773;28;20047;-73
2023/09/28 06:55:50;;;;;;;13.20;3.80;;;17.10;80.30;;;;;;4998614;28;20050;-73
2023/09/28 06:58:17;;;;;;;16.75;4.10;;;17.10;80.30;;;;;;5003188;28;20053;-73
2023/09/28 07:00:44;;;;;;;15.98;4.13;;;17.10;80.30;;;;;;4980541;28;20636;-73
2023/09/28 07:03:12;;;;;;;14.10;4.00;;;17.10;80.30;;;;;;5002179;28;20550;-73
2023/09/28 07:05:39;;;;;;;13.95;3.58;;;17.20;80.30;;;;;;4985029;28;20106;-73
2023/09/28 07:08:08;;;;;;;13.60;3.60;;;17.20;80.30;;;;;;5001160;28;20528;-73
2023/09/28 07:10:36;;;;;;;14.93;4.05;;;17.10;80.30;;;;;;4979277;28;20059;-73
2023/09/28 07:13:05;;;;;;;14.77;3.80;;;17.20;80.40;;;;;;4997196;28;20059;-73
2023/09/28 07:15:32;;;;;;;15.07;3.60;;;17.20;80.50;;;;;;4999186;28;20054;-72
2023/09/28 07:18:00;;;;;;;16.52;3.95;;;17.20;80.50;;;;;;4982050;28;20050;-73
2023/09/28 07:20:28;;;;;;;16.57;3.83;;;17.20;80.50;;;;;;4995936;28;20488;-73
2023/09/28 07:22:56;;;;;;;17.20;3.60;;;17.20;80.50;;;;;;4997481;28;20050;-74
2023/09/28 07:25:25;;;;;;;14.35;3.25;;;17.20;80.50;;;;;;4989432;28;20686;-73
2023/09/28 07:27:53;;;;;;;11.68;2.25;;;17.20;80.70;;;;;;4980688;28;20342;-73
2023/09/28 07:30:20;;;;;;;18.45;3.75;;;17.20;80.50;;;;;;4988667;28;20050;-72
2023/09/28 07:32:47;;;;;;;14.93;3.80;;;17.20;80.40;;;;;;4995669;28;20135;-73
2023/09/28 07:35:15;;;;;;;14.73;3.22;;;17.20;80.50;;;;;;4988409;28;20059;-73
2023/09/28 07:37:43;;;;;;;17.48;3.42;;;17.30;80.50;;;;;;4971427;28;20588;-73
2023/09/28 07:40:12;;;;;;;12.75;3.33;;;17.30;80.60;;;;;;5007797;28;20165;-73
2023/09/28 07:42:41;;;;;;;19.90;3.88;;;17.40;80.50;;;;;;4989821;28;20045;-73
2023/09/28 07:45:08;;;;;;;18.67;3.63;;;17.40;80.50;;;;;;5006154;28;20055;-73
2023/09/28 07:47:35;;;;;;;18.45;3.90;;;17.40;80.50;;;;;;4998189;28;20529;-73
2023/09/28 07:50:03;;;;;;;16.33;3.13;;;17.50;80.50;;;;;;4988011;28;20134;-73
2023/09/28 07:52:30;;;;;;;14.98;3.35;;;17.50;80.20;;;;;;5001156;28;20050;-73
2023/09/28 07:54:58;;;;;;;15.98;3.80;;;17.50;80.00;;;;;;4983303;28;20046;-73
2023/09/28 07:57:25;;;;;;;17.50;3.20;;;17.50;79.90;;;;;;5001588;28;20046;-73
2023/09/28 07:59:54;;;;;;;13.73;2.33;;;17.50;80.00;;;;;;4998523;28;20059;-73
2023/09/28 08:02:22;;;;;;;20.42;3.10;;;17.60;79.90;;;;;;5011294;28;20046;-73
2023/09/28 08:04:51;;;;;;;13.73;2.80;;;17.60;79.70;;;;;;4985511;28;20121;-73
2023/09/28 08:07:18;;;;;;;20.42;3.67;;;17.70;79.80;;;;;;4998738;28;20153;-74
2023/09/28 08:09:47;;;;;;;15.60;3.33;;;17.80;79.70;;;;;;4996663;28;20058;-74
2023/09/28 08:12:14;;;;;;;14.57;3.25;;;17.80;79.60;;;;;;4988469;28;20050;-73
2023/09/28 08:14:41;;;;;;;18.20;3.50;;;17.80;79.30;;;;;;4996117;28;20059;-72
2023/09/28 08:17:12;;;;;;;16.00;2.92;;;17.80;79.40;;;;;;4995253;28;20465;-73
2023/09/28 08:19:39;;;;;;;18.50;2.90;;;17.80;79.30;;;;;;4998570;28;20054;-73
2023/09/28 08:22:06;;;;;;;19.23;3.50;;;17.80;79.10;;;;;;5001740;28;20046;-72
2023/09/28 08:24:33;;;;;;;20.00;3.40;;;17.90;79.00;;;;;;4994092;28;20050;-72
2023/09/28 08:27:00;;;;;;;18.88;3.45;;;18.00;78.70;;;;;;4986699;28;20600;-73
2023/09/28 08:29:27;;;;;;;15.70;2.80;;;18.00;78.60;;;;;;4980690;28;20520;-73
2023/09/28 08:31:54;;;;;;;16.23;3.50;;;18.00;78.40;;;;;;4987392;28;20057;-73
2023/09/28 08:34:23;;;;;;;16.70;2.80;;;18.00;78.50;;;;;;5006814;28;20532;-73
2023/09/28 08:36:50;;;;;;;15.93;3.28;;;18.00;78.50;;;;;;5010638;28;20517;-72
2023/09/28 08:39:17;;;;;;;15.00;3.28;;;18.10;78.40;;;;;;5006178;28;20564;-73
2023/09/28 08:41:46;;;;;;;15.70;2.90;;;18.20;77.90;;;;;;4989639;28;20521;-73
2023/09/28 08:44:14;;;;;;;17.85;3.50;;;18.20;77.50;;;;;;5011306;28;20140;-73
2023/09/28 08:46:43;;;;;;;15.87;2.93;;;18.20;77.60;;;;;;5010739;28;20051;-73
2023/09/28 08:49:14;;;;;;;13.82;2.47;;;18.30;76.90;;;;;;5016595;28;20054;-73
2023/09/28 08:51:44;;;;;;;12.90;3.05;;;18.30;76.60;;;;;;5003607;28;20086;-73
2023/09/28 08:54:13;;;;;;;12.20;3.05;;;18.30;76.70;;;;;;5000080;28;20058;-73
2023/09/28 08:56:40;;;;;;;16.17;3.50;;;18.30;76.80;;;;;;5006546;28;20057;-73
2023/09/28 08:59:09;;;;;;;13.77;2.83;;;18.30;76.50;;;;;;5001017;28;20109;-73
2023/09/28 09:01:39;;;;;;;17.90;3.63;;;18.30;76.70;;;;;;4989231;28;20043;-73
2023/09/28 09:04:07;;;;;;;16.65;2.88;;;18.30;76.60;;;;;;5004471;28;20053;-72
2023/09/28 09:06:34;;;;;;;21.42;3.95;;;18.30;76.90;;;;;;4982732;28;20047;-73
2023/09/28 09:09:06;;;;;;;17.50;4.00;;;18.20;76.90;;;;;;4999738;28;20812;-73
2023/09/28 09:11:37;;;;;;;16.20;3.50;;;18.20;77.10;;;;;;4999440;28;20147;-73
2023/09/28 09:14:04;;;;;;;17.33;3.72;;;18.30;76.80;;;;;;4999162;28;20057;-73
2023/09/28 09:16:31;;;;;;;10.50;2.17;;;18.30;76.70;;;;;;4991263;28;20078;-73
2023/09/28 09:18:58;;;;;;;18.88;3.88;;;18.30;76.40;;;;;;4984793;28;20086;-73
2023/09/28 09:21:26;;;;;;;19.38;3.67;;;18.30;76.60;;;;;;5001575;28;20453;-73
2023/09/28 09:24:05;;;;;;;17.30;3.30;;;18.30;76.80;;;;;;4991688;28;20137;-73
2023/09/28 09:26:40;;;;;;;17.50;3.10;;;18.30;76.90;;;;;;5002355;28;20053;-73
2023/09/28 09:29:07;;;;;;;15.63;3.00;;;18.30;76.10;;;;;;5000152;28;20059;-73
2023/09/28 09:31:38;;;;;;;23.00;4.40;;;18.30;76.00;;;;;;4980491;28;20046;-73
2023/09/28 09:34:06;;;;;;;17.92;3.38;;;18.30;76.20;;;;;;5001981;28;20511;-71
2023/09/28 09:36:33;;;;;;;19.13;3.10;;;18.30;75.20;;;;;;4991905;28;20062;-73
2023/09/28 09:39:00;;;;;;;15.63;3.10;;;18.40;73.80;;;;;;4991263;28;20061;-72
2023/09/28 09:41:30;;;;;;;19.10;3.22;;;18.40;74.20;;;;;;5014394;28;20878;-73
2023/09/28 09:43:59;;;;;;;20.58;3.22;;;18.40;74.50;;;;;;5001786;28;20065;-73
2023/09/28 09:46:27;;;;;;;15.65;2.80;;;18.40;73.40;;;;;;4976874;28;20050;-73
2023/09/28 09:48:55;;;;;;;17.03;3.00;;;18.40;73.30;;;;;;5018895;28;20584;-73
2023/09/28 09:51:23;;;;;;;15.98;2.83;;;18.40;73.10;;;;;;4985604;28;20090;-73
2023/09/28 09:53:51;;;;;;;17.60;2.75;;;18.40;72.90;;;;;;5001053;28;20175;-73
2023/09/28 09:56:18;;;;;;;12.45;2.60;;;18.50;72.80;;;;;;4996267;28;20054;-73
2023/09/28 09:58:48;;;;;;;12.00;1.90;;;18.50;73.00;;;;;;5006185;28;20042;-73
2023/09/28 10:01:17;;;;;;;16.17;2.20;;;18.50;72.60;;;;;;5001200;28;20050;-72
2023/09/28 10:03:47;;;;;;;14.63;2.55;;;18.50;72.30;;;;;;4991316;28;20058;-73
2023/09/28 10:06:16;;;;;;;15.55;2.20;;;18.60;72.50;;;;;;5019534;23;20046;-73
2023/09/28 10:08:45;;;;;;;13.55;2.45;;;18.60;71.50;;;;;;4986019;28;20058;-72
2023/09/28 10:11:13;;;;;;;12.65;1.73;;;18.60;71.50;;;;;;5006516;28;20720;-73
2023/09/28 10:13:41;;;;;;;13.20;2.23;;;18.70;70.80;;;;;;4983031;28;20054;-73
2023/09/28 10:16:12;;;;;;;15.77;2.70;;;18.60;71.10;;;;;;4999013;28;20538;-73
2023/09/28 10:18:43;;;;;;;15.73;2.50;;;18.70;70.90;;;;;;5001359;28;20505;-73
2023/09/28 10:21:11;;;;;;;12.70;2.08;;;18.70;70.70;;;;;;5005841;28;20090;-73
2023/09/28 10:23:38;;;;;;;11.85;2.20;;;18.70;70.80;;;;;;4982946;28;20162;-73
2023/09/28 10:26:12;;;;;;;13.30;2.20;;;18.70;70.60;;;;;;4998434;28;20050;-73
2023/09/28 10:29:04;;;;;;;18.80;2.65;;;18.70;70.30;;;;;;4999484;28;20429;-73
2023/09/28 10:31:34;;;;;;;13.65;2.40;;;18.70;70.30;;;;;;4996481;28;20050;-73
2023/09/28 10:34:02;;;;;;;18.08;2.45;;;18.70;69.90;;;;;;4982660;28;20051;-73
2023/09/28 10:36:30;;;;;;;13.52;2.53;;;18.80;69.70;;;;;;5001886;28;20169;-73
2023/09/28 10:39:15;;;;;;;16.77;2.87;;;18.80;69.90;;;;;;4997176;28;20456;-73
2023/09/28 10:41:50;;;;;;;15.65;3.13;;;18.80;69.80;;;;;;5005404;28;20077;-73
2023/09/28 10:44:18;;;;;;;15.13;2.53;;;18.90;69.30;;;;;;5001434;28;20055;-73
2023/09/28 10:46:48;;;;;;;15.30;2.20;;;18.90;69.30;;;;;;4971813;28;20042;-73
2023/09/28 10:49:22;;;;;;;14.18;2.45;;;18.90;69.40;;;;;;4989513;28;20046;-74
2023/09/28 10:51:51;;;;;;;14.73;2.40;;;18.90;69.00;;;;;;4980452;28;20468;-74
2023/09/28 10:54:18;;;;;;;14.45;2.70;;;18.90;68.80;;;;;;4986017;28;20054;-73
2023/09/28 10:56:49;;;;;;;13.95;2.50;;;18.90;68.80;;;;;;5000406;28;20062;-73
2023/09/28 10:59:18;;;;;;;13.77;2.40;;;19.00;68.80;;;;;;5000457;28;20050;-73
2023/09/28 11:01:47;;;;;;;13.70;2.50;;;19.00;68.60;;;;;;4983791;28;20050;-74
2023/09/28 11:04:15;;;;;;;14.37;2.70;;;19.00;68.50;;;;;;4985273;28;20521;-72
2023/09/28 11:06:43;;;;;;;14.80;2.72;;;19.00;68.20;;;;;;4989628;28;20270;-73
2023/09/28 11:09:12;;;;;;;14.57;2.67;;;19.00;68.30;;;;;;4990821;28;20655;-73
2023/09/28 11:11:39;;;;;;;13.77;2.47;;;19.10;67.50;;;;;;4989814;28;20046;-72
2023/09/28 11:14:06;;;;;;;14.48;2.00;;;19.10;67.20;;;;;;4998019;28;20054;-73
2023/09/28 11:16:34;;;;;;;13.03;2.47;;;19.10;67.30;;;;;;4996289;28;20057;-73
2023/09/28 11:19:03;;;;;;;10.57;1.40;;;19.10;67.20;;;;;;4996099;28;20059;-73
2023/09/28 11:21:31;;;;;;;16.88;2.58;;;19.10;67.50;;;;;;4997331;28;20050;-73
2023/09/28 11:23:58;;;;;;;13.63;2.72;;;19.00;67.60;;;;;;4985582;28;20049;-73
2023/09/28 11:26:27;;;;;;;17.02;3.20;;;19.00;67.40;;;;;;4988638;28;20054;-73
2023/09/28 11:28:56;;;;;;;13.30;2.43;;;19.00;67.60;;;;;;4989528;28;20101;-73
2023/09/28 11:31:23;;;;;;;13.80;1.77;;;19.00;67.90;;;;;;5003238;28;20090;-73
2023/09/28 11:33:50;;;;;;;13.38;2.67;;;19.00;68.50;;;;;;4986402;28;20043;-73
2023/09/28 11:36:21;;;;;;;13.55;2.78;;;19.00;68.20;;;;;;5003729;28;20054;-73
2023/09/28 11:38:49;;;;;;;17.77;3.17;;;19.00;68.70;;;;;;5006517;28;20158;-72
2023/09/28 11:41:16;;;;;;;13.93;2.67;;;19.00;68.60;;;;;;4983803;28;20081;-73
2023/09/28 11:43:47;;;;;;;14.63;2.90;;;19.00;68.70;;;;;;4999122;28;20065;-73
2023/09/28 11:46:18;;;;;;;15.23;2.00;;;19.10;68.50;;;;;;4982310;28;20055;-73
2023/09/28 11:48:45;;;;;;;16.00;2.90;;;19.10;68.60;;;;;;4982362;28;20067;-73
2023/09/28 11:51:15;;;;;;;16.55;2.85;;;19.10;68.70;;;;;;4990931;28;20640;-73
2023/09/28 11:53:44;;;;;;;16.37;2.70;;;19.10;68.70;;;;;;4996773;28;20135;-73
2023/09/28 11:56:20;;;;;;;15.68;3.20;;;19.10;68.70;;;;;;4983087;28;20054;-73
2023/09/28 11:58:47;;;;;;;15.63;3.25;;;19.10;68.90;;;;;;5005398;28;20057;-73
2023/09/28 12:01:14;;;;;;;12.60;2.42;;;19.10;69.10;;;;;;4987958;28;20053;-73
2023/09/28 12:03:41;;;;;;;12.30;2.28;;;19.20;68.90;;;;;;4988118;28;20059;-73
2023/09/28 12:06:08;;;;;;;12.33;2.80;;;19.20;68.70;;;;;;4997131;28;20062;-73
2023/09/28 12:08:37;;;;;;;15.45;3.15;;;19.20;69.00;;;;;;4994059;28;20058;-73
2023/09/28 12:11:06;;;;;;;14.65;3.10;;;19.20;69.10;;;;;;4993500;28;20102;-73
2023/09/28 12:13:33;;;;;;;14.43;3.10;;;19.20;69.40;;;;;;5001326;28;20059;-73
2023/09/28 12:16:00;;;;;;;15.98;2.88;;;19.10;69.40;;;;;;5000195;28;20050;-73
2023/09/28 12:18:27;;;;;;;14.40;2.97;;;19.20;69.50;;;;;;5004236;28;20058;-73
2023/09/28 12:20:54;;;;;;;15.02;2.65;;;19.20;69.20;;;;;;4969865;28;20105;-73
2023/09/28 12:23:20;;;;;;;13.65;3.28;;;19.20;68.80;;;;;;4983089;28;20054;-73
2023/09/28 12:25:48;;;;;;;12.35;2.85;;;19.20;67.90;;;;;;5003860;28;20054;-73
2023/09/28 12:28:16;;;;;;;14.73;2.53;;;19.30;67.60;;;;;;4993271;28;20062;-73
2023/09/28 12:30:43;;;;;;;12.37;2.47;;;19.30;67.70;;;;;;5000807;28;20139;-73
2023/09/28 12:33:10;;;;;;;10.50;2.13;;;19.30;66.90;;;;;;4979399;28;20059;-72
2023/09/28 12:35:39;;;;;;;12.30;2.33;;;19.30;67.20;;;;;;4983957;28;20523;-72
2023/09/28 12:38:07;;;;;;;17.25;2.90;;;19.30;66.50;;;;;;4979502;28;20165;-72
2023/09/28 12:40:34;;;;;;;18.85;3.05;;;19.30;67.30;;;;;;4979379;28;20043;-73
2023/09/28 12:43:04;;;;;;;15.97;3.00;;;19.30;67.50;;;;;;4980043;28;20047;-73